Main page
METAR-TAF:

METAR-TAF

Airports :

Kassel, Germany

Kassel Airport

latitude: 51-24N, longitude: 009-23E, elevation: 277 m

Current weather observation

The report was made 50 minutes ago, at 01:50 UTC
Wind 15 kt from the West/Northwest
Temperature 13°C
Humidity 100%
Pressure 1005 hPa
Visibility: 7000 m
Few clouds at a height of 600 ft
Broken clouds at a height of 900 ft
Overcast at a height of 1400 ft
light rain

METAR: EDVK 260150Z 30015KT 7000 -RA FEW006 BKN009 OVC014 13/13 Q1005

Time: 04:40 (02:40 UTC)

Forecast

The report was made 6 hours and 40 minutes ago, at 20:00 UTC
Forecast valid from 25 at 21 UTC to 26 at 01 UTC
Wind 8 kt from the West/Northwest
Visibility: 8000 m
Scattered clouds at a height of 500 ft
Broken clouds at a height of 1500 ft
Temporary
from 25 at 21 UTC to 26 at 01 UTC
Visibility: 3000 m
Broken clouds at a height of 500 ft
rain

TAF: EDVK 252000Z 2521/2601 29008KT 8000 SCT005 BKN015 TEMPO 2521/2601 3000 RA BKN005

Weather observations and forecasts of more than 4000 airports (METAR and TAF reports).

The available stations are represented by yellow and red dots on the map.

Hover mouse over dot to see the name of the station.

Then click to see weather observations and forecasts.

To change the map : click on the green buttons with a black cross to zoom in, on the green button with a dash to zoom out, or on the green arrows for adjacent maps.


METAR-TAF: